createdAt,value
2018-05-02T00:02:23.456Z,2.60
2018-05-02T00:04:55.026Z,2.20
2018-05-02T00:09:57.483Z,2.30
2018-05-02T00:12:30.888Z,2.30
2018-05-02T00:15:03.290Z,2.50
2018-05-02T00:17:35.448Z,2.90
2018-05-02T00:20:07.482Z,2.37
2018-05-02T00:22:40.083Z,2.47
2018-05-02T00:25:14.889Z,2.20
2018-05-02T00:27:47.680Z,2.70
2018-05-02T00:30:20.059Z,1.90
2018-05-02T00:32:51.569Z,2.03
2018-05-02T00:35:23.189Z,2.00
2018-05-02T00:37:54.815Z,1.90
2018-05-02T00:40:26.664Z,2.10
2018-05-02T00:42:58.444Z,2.17
2018-05-02T00:46:57.671Z,2.23
2018-05-02T00:49:29.280Z,2.23
2018-05-02T00:52:00.972Z,2.13
2018-05-02T00:54:32.989Z,2.67
2018-05-02T00:57:05.001Z,2.60
2018-05-02T00:59:36.841Z,3.20
2018-05-02T01:02:08.620Z,2.97
2018-05-02T01:04:40.443Z,3.10
2018-05-02T01:07:12.134Z,3.07
2018-05-02T01:09:43.988Z,3.00
2018-05-02T01:12:15.580Z,3.20
2018-05-02T01:14:47.867Z,3.15
2018-05-02T01:19:50.147Z,3.33
2018-05-02T01:22:21.579Z,2.93
2018-05-02T01:26:26.593Z,3.30
2018-05-02T01:28:58.464Z,3.37
2018-05-02T01:31:30.270Z,3.10
2018-05-02T01:34:02.261Z,3.12
2018-05-02T01:36:34.086Z,2.87
2018-05-02T01:39:05.772Z,2.40
2018-05-02T01:41:37.467Z,2.60
2018-05-02T01:44:09.447Z,2.95
2018-05-02T01:46:41.233Z,3.13
2018-05-02T01:49:24.531Z,3.30
2018-05-02T01:51:57.291Z,2.80
2018-05-02T01:54:30.077Z,3.20
2018-05-02T01:57:02.306Z,2.87
2018-05-02T01:59:35.459Z,3.20
2018-05-02T02:02:08.112Z,2.80
2018-05-02T02:04:40.041Z,3.00
2018-05-02T02:07:12.109Z,3.00
2018-05-02T02:09:45.590Z,3.33
2018-05-02T02:12:18.057Z,3.12
2018-05-02T02:14:50.124Z,3.30
2018-05-02T02:17:22.036Z,3.53
2018-05-02T02:19:54.032Z,3.40
2018-05-02T02:22:28.101Z,3.40
2018-05-02T02:25:00.052Z,3.08
2018-05-02T02:27:32.081Z,3.50
2018-05-02T02:30:03.864Z,3.97
2018-05-02T02:32:35.972Z,3.65
2018-05-02T02:35:07.998Z,3.73
2018-05-02T02:37:40.275Z,4.20
2018-05-02T02:40:12.075Z,4.30
2018-05-02T02:42:44.003Z,4.90
2018-05-02T02:45:15.548Z,3.90
2018-05-02T02:47:47.449Z,4.12
2018-05-02T02:50:19.135Z,4.00
2018-05-02T02:52:50.709Z,4.33
2018-05-02T02:55:22.481Z,4.87
2018-05-02T02:57:54.819Z,5.13
2018-05-02T03:00:26.695Z,4.57
2018-05-02T03:02:59.555Z,4.60
2018-05-02T03:05:31.148Z,4.03
2018-05-02T03:08:03.051Z,4.20
2018-05-02T03:10:34.913Z,4.10
2018-05-02T03:14:57.891Z,4.43
2018-05-02T03:18:30.433Z,4.90
2018-05-02T03:21:02.335Z,5.30
2018-05-02T03:23:39.420Z,5.07
2018-05-02T03:26:11.454Z,5.80
2018-05-02T03:28:43.609Z,5.40
2018-05-02T03:31:16.622Z,4.72
2018-05-02T03:33:48.543Z,5.65
2018-05-02T03:37:36.272Z,11.20
2018-05-02T03:40:10.410Z,5.53
2018-05-02T03:42:45.707Z,5.90
2018-05-02T03:45:18.427Z,5.75
2018-05-02T03:47:51.763Z,5.30
2018-05-02T03:50:23.398Z,5.20
2018-05-02T03:52:54.970Z,5.93
2018-05-02T03:55:27.266Z,5.50
2018-05-02T03:57:59.227Z,5.05
2018-05-02T04:00:41.774Z,5.33
2018-05-02T04:03:24.487Z,5.07
2018-05-02T04:09:09.034Z,6.37
2018-05-02T04:11:42.847Z,6.20
2018-05-02T04:14:14.538Z,5.70
2018-05-02T04:16:46.540Z,6.15
2018-05-02T04:19:18.557Z,5.55
2018-05-02T04:21:50.539Z,5.47
2018-05-02T04:24:22.463Z,5.47
2018-05-02T04:26:54.050Z,5.20
2018-05-02T04:29:26.334Z,4.97
2018-05-02T04:31:57.974Z,5.00
2018-05-02T04:34:29.855Z,5.17
2018-05-02T04:39:33.103Z,4.68
2018-05-02T04:42:05.278Z,5.57
2018-05-02T04:44:37.186Z,4.55
2018-05-02T04:47:09.122Z,5.20
2018-05-02T04:49:41.744Z,4.50
2018-05-02T04:52:14.578Z,5.22
2018-05-02T04:54:47.554Z,4.78
2018-05-02T04:57:21.268Z,4.95
2018-05-02T04:59:54.339Z,5.20
2018-05-02T05:02:28.589Z,4.97
2018-05-02T05:05:01.606Z,4.80
2018-05-02T05:07:33.979Z,4.63
2018-05-02T05:10:06.951Z,4.90
2018-05-02T05:12:39.975Z,5.17
2018-05-02T05:15:14.797Z,4.90
2018-05-02T05:17:48.440Z,4.50
2018-05-02T05:20:22.437Z,4.97
2018-05-02T05:22:55.952Z,4.85
2018-05-02T05:25:27.812Z,5.13
2018-05-02T05:27:59.468Z,5.00
2018-05-02T05:30:31.105Z,5.50
2018-05-02T05:33:03.131Z,4.65
2018-05-02T05:35:36.472Z,4.90
2018-05-02T05:38:08.074Z,4.67
2018-05-02T05:40:39.898Z,4.70
2018-05-02T05:43:11.426Z,4.40
2018-05-02T05:45:43.109Z,4.50
2018-05-02T05:48:15.326Z,4.60
2018-05-02T05:50:46.929Z,4.90
2018-05-02T05:53:18.967Z,4.73
2018-05-02T05:55:52.306Z,4.87
2018-05-02T05:58:25.730Z,4.67
2018-05-02T06:00:59.525Z,5.20
2018-05-02T06:03:33.708Z,4.57
2018-05-02T06:06:07.722Z,4.65
2018-05-02T06:08:41.246Z,4.47
2018-05-02T06:11:13.864Z,5.13
2018-05-02T06:13:47.565Z,5.10
2018-05-02T06:16:20.691Z,5.53
2018-05-02T06:18:54.977Z,4.82
2018-05-02T06:21:28.448Z,4.63
2018-05-02T06:24:02.573Z,4.57
2018-05-02T06:26:35.649Z,4.70
2018-05-02T06:29:09.076Z,5.13
2018-05-02T06:31:42.113Z,4.53
2018-05-02T06:34:15.134Z,4.50
2018-05-02T06:36:48.534Z,4.70
2018-05-02T06:39:22.458Z,5.03
2018-05-02T06:41:55.510Z,4.47
2018-05-02T06:44:28.530Z,5.03
2018-05-02T06:47:01.482Z,5.20
2018-05-02T06:49:34.461Z,4.72
2018-05-02T06:52:07.993Z,4.65
2018-05-02T06:54:41.093Z,4.93
2018-05-02T06:57:13.674Z,4.43
2018-05-02T06:59:47.293Z,4.90
2018-05-02T07:02:20.578Z,4.70
2018-05-02T07:04:53.450Z,4.20
2018-05-02T07:07:26.556Z,4.40
2018-05-02T07:09:59.747Z,4.95
2018-05-02T07:12:33.447Z,4.62
2018-05-02T07:15:06.296Z,4.43
2018-05-02T07:17:39.580Z,4.20
2018-05-02T07:20:13.479Z,4.25
2018-05-02T07:22:46.003Z,4.60
2018-05-02T07:25:19.720Z,4.90
2018-05-02T07:27:52.462Z,4.43
2018-05-02T07:30:25.531Z,5.15
2018-05-02T07:32:58.636Z,4.87
2018-05-02T07:35:31.172Z,4.50
2018-05-02T07:38:03.970Z,4.23
2018-05-02T07:40:37.472Z,4.23
2018-05-02T07:43:10.666Z,4.07
2018-05-02T07:45:43.461Z,4.10
2018-05-02T07:48:16.489Z,5.13
2018-05-02T07:50:49.486Z,4.77
2018-05-02T07:53:22.293Z,4.68
2018-05-02T07:55:55.210Z,4.77
2018-05-02T07:58:28.596Z,4.53
2018-05-02T08:01:02.380Z,4.17
2018-05-02T08:03:35.762Z,4.97
2018-05-02T08:06:08.795Z,4.28
2018-05-02T08:08:41.587Z,5.07
2018-05-02T08:11:14.596Z,4.57
2018-05-02T08:13:47.470Z,4.30
2018-05-02T08:16:20.376Z,4.70
2018-05-02T08:18:53.454Z,5.00
2018-05-02T08:21:26.595Z,4.37
2018-05-02T08:23:59.467Z,4.12
2018-05-02T08:26:32.533Z,4.30
2018-05-02T08:29:06.097Z,4.70
2018-05-02T08:31:39.483Z,4.90
2018-05-02T08:34:12.113Z,4.72
2018-05-02T08:36:45.008Z,4.50
2018-05-02T08:39:17.833Z,4.70
2018-05-02T08:44:22.262Z,4.62
2018-05-02T08:46:55.160Z,4.40
2018-05-02T08:49:28.007Z,4.97
2018-05-02T08:52:01.340Z,4.87
2018-05-02T08:54:35.353Z,5.10
2018-05-02T08:57:07.535Z,4.87
2018-05-02T08:59:40.467Z,4.90
2018-05-02T09:02:13.485Z,5.15
2018-05-02T09:04:46.681Z,5.12
2018-05-02T09:07:20.383Z,4.85
2018-05-02T09:09:53.110Z,4.90
2018-05-02T09:12:26.653Z,5.22
2018-05-02T09:14:59.874Z,5.60
2018-05-02T09:17:33.278Z,5.62
2018-05-02T09:20:06.306Z,5.53
2018-05-02T09:22:39.482Z,6.07
2018-05-02T09:25:12.308Z,6.15
2018-05-02T09:27:45.311Z,6.80
2018-05-02T09:30:17.478Z,6.00
2018-05-02T09:32:50.443Z,6.32
2018-05-02T09:35:23.414Z,6.03
2018-05-02T09:37:56.605Z,7.03
2018-05-02T09:40:29.950Z,5.53
2018-05-02T09:43:02.945Z,6.30
2018-05-02T09:45:36.336Z,6.53
2018-05-02T09:48:09.398Z,6.03
2018-05-02T09:50:42.977Z,5.95
2018-05-02T09:53:16.535Z,6.47
2018-05-02T09:55:49.407Z,5.93
2018-05-02T09:58:22.246Z,6.25
2018-05-02T10:00:55.322Z,6.17
2018-05-02T10:03:28.250Z,5.30
2018-05-02T10:06:01.320Z,6.10
2018-05-02T10:08:34.609Z,5.90
2018-05-02T10:11:07.409Z,6.10
2018-05-02T10:13:41.399Z,5.78
2018-05-02T10:16:13.809Z,5.60
2018-05-02T10:18:46.794Z,5.50
2018-05-02T10:21:19.958Z,5.37
2018-05-02T10:23:52.741Z,5.85
2018-05-02T10:26:25.413Z,5.00
2018-05-02T10:28:58.571Z,5.50
2018-05-02T10:31:31.256Z,5.20
2018-05-02T10:34:03.638Z,5.53
2018-05-02T10:36:37.334Z,4.60
2018-05-02T10:39:11.241Z,4.60
2018-05-02T10:41:44.377Z,5.00
2018-05-02T10:44:17.544Z,5.32
2018-05-02T10:46:51.081Z,5.50
2018-05-02T10:49:24.412Z,5.10
2018-05-02T10:51:57.683Z,5.43
2018-05-02T10:54:31.243Z,5.03
2018-05-02T10:57:04.542Z,5.00
2018-05-02T10:59:38.692Z,4.50
2018-05-02T11:02:12.537Z,4.30
2018-05-02T11:04:46.544Z,4.47
2018-05-02T11:07:19.250Z,4.40
2018-05-02T11:09:52.542Z,4.70
2018-05-02T11:12:25.241Z,4.37
2018-05-02T11:14:58.238Z,4.70
2018-05-02T11:17:31.534Z,4.00
2018-05-02T11:20:04.676Z,5.00
2018-05-02T11:22:37.511Z,3.90
2018-05-02T11:25:10.450Z,4.10
2018-05-02T11:27:43.637Z,4.20
2018-05-02T11:30:17.122Z,4.15
2018-05-02T11:32:50.241Z,3.70
2018-05-02T11:35:22.933Z,3.53
2018-05-02T11:37:56.655Z,4.00
2018-05-02T11:40:29.553Z,4.45
2018-05-02T11:43:02.987Z,4.18
2018-05-02T11:45:35.454Z,4.47
2018-05-02T11:48:07.914Z,4.57
2018-05-02T11:50:40.931Z,4.87
2018-05-02T11:53:14.461Z,4.30
2018-05-02T11:55:47.406Z,5.05
2018-05-02T11:58:20.104Z,5.00
2018-05-02T12:00:53.663Z,5.05
2018-05-02T12:03:26.429Z,5.78
2018-05-02T12:05:59.407Z,5.77
2018-05-02T12:08:32.920Z,5.25
2018-05-02T12:11:05.933Z,5.20
2018-05-02T12:13:38.757Z,5.37
2018-05-02T12:16:12.383Z,4.65
2018-05-02T12:18:45.538Z,4.62
2018-05-02T12:21:18.792Z,4.70
2018-05-02T12:26:23.573Z,3.67
2018-05-02T12:28:57.234Z,4.47
2018-05-02T12:31:29.969Z,4.00
2018-05-02T12:34:03.018Z,4.50
2018-05-02T12:36:35.954Z,4.40
2018-05-02T12:41:40.261Z,3.73
2018-05-02T12:44:13.431Z,4.03
2018-05-02T12:46:46.419Z,4.33
2018-05-02T12:49:19.088Z,3.83
2018-05-02T12:51:52.767Z,3.35
2018-05-02T12:54:26.428Z,3.90
2018-05-02T12:56:59.565Z,4.07
2018-05-02T12:59:32.999Z,4.00
2018-05-02T13:02:06.627Z,3.90
2018-05-02T13:04:39.655Z,4.00
2018-05-02T13:07:12.604Z,4.10
2018-05-02T13:09:46.435Z,4.53
2018-05-02T13:12:19.405Z,3.73
2018-05-02T13:14:52.406Z,3.70
2018-05-02T13:17:25.706Z,3.83
2018-05-02T13:19:59.427Z,3.50
2018-05-02T13:22:32.446Z,3.62
2018-05-02T13:25:05.729Z,4.00
2018-05-02T13:27:39.263Z,3.80
2018-05-02T13:30:11.932Z,3.10
2018-05-02T13:32:44.495Z,3.70
2018-05-02T13:35:17.684Z,4.23
2018-05-02T13:37:50.703Z,3.50
2018-05-02T13:40:23.870Z,4.47
2018-05-02T13:42:57.037Z,4.20
2018-05-02T13:45:31.069Z,3.83
2018-05-02T13:48:05.079Z,3.87
2018-05-02T13:50:38.613Z,3.73
2018-05-02T13:53:12.537Z,4.87
2018-05-02T13:55:45.323Z,3.90
2018-05-02T13:58:22.367Z,3.73
2018-05-02T14:00:55.952Z,4.27
2018-05-02T14:03:28.944Z,3.75
2018-05-02T14:06:02.092Z,4.35
2018-05-02T14:08:35.023Z,4.30
2018-05-02T14:11:08.490Z,4.03
2018-05-02T14:13:41.737Z,4.70
2018-05-02T14:16:14.734Z,4.18
2018-05-02T14:18:47.944Z,4.15
2018-05-02T14:21:21.212Z,4.20
2018-05-02T14:23:54.324Z,3.77
2018-05-02T14:26:27.678Z,4.00
2018-05-02T14:29:00.425Z,3.60
2018-05-02T14:31:33.363Z,3.40
2018-05-02T14:34:06.462Z,3.53
2018-05-02T14:39:11.616Z,3.33
2018-05-02T14:41:44.669Z,3.20
2018-05-02T14:44:18.473Z,2.85
2018-05-02T14:46:51.006Z,3.30
2018-05-02T14:49:24.633Z,3.03
2018-05-02T14:51:57.596Z,3.37
2018-05-02T14:54:30.630Z,3.23
2018-05-02T14:59:35.552Z,3.37
2018-05-02T15:02:08.224Z,3.80
2018-05-02T15:04:41.695Z,3.70
2018-05-02T15:07:14.816Z,3.72
2018-05-02T15:09:48.547Z,3.70
2018-05-02T15:13:26.472Z,4.17
2018-05-02T15:15:59.435Z,4.00
2018-05-02T15:18:32.435Z,4.37
2018-05-02T15:21:05.584Z,4.40
2018-05-02T15:23:38.397Z,4.20
2018-05-02T15:26:11.563Z,4.80
2018-05-02T15:28:45.154Z,4.18
2018-05-02T15:31:18.402Z,4.33
2018-05-02T15:33:51.328Z,4.07
2018-05-02T15:36:23.943Z,4.40
2018-05-02T15:38:56.935Z,3.90
2018-05-02T15:41:29.922Z,4.10
2018-05-02T15:44:03.012Z,4.70
2018-05-02T15:46:36.495Z,3.97
2018-05-02T15:49:09.373Z,4.40
2018-05-02T15:51:42.651Z,4.25
2018-05-02T15:54:15.549Z,4.07
2018-05-02T15:56:49.400Z,4.10
2018-05-02T15:59:22.458Z,4.73
2018-05-02T16:01:55.563Z,4.22
2018-05-02T16:04:28.433Z,5.00
2018-05-02T16:07:01.572Z,4.12
2018-05-02T16:09:34.327Z,4.80
2018-05-02T16:12:05.815Z,4.40
2018-05-02T16:14:37.404Z,4.75
2018-05-02T16:17:08.932Z,4.10
2018-05-02T16:19:40.746Z,5.30
2018-05-02T16:22:12.511Z,5.13
2018-05-02T16:24:44.588Z,4.25
2018-05-02T16:27:18.283Z,4.73
2018-05-02T16:29:50.026Z,4.50
2018-05-02T16:32:22.250Z,3.90
2018-05-02T16:36:17.785Z,4.43
2018-05-02T16:38:49.540Z,4.30
2018-05-02T16:41:21.321Z,4.03
2018-05-02T16:43:53.094Z,3.27
2018-05-02T16:46:24.539Z,4.13
2018-05-02T16:51:26.447Z,4.17
2018-05-02T16:53:58.230Z,4.62
2018-05-02T16:56:29.873Z,3.90
2018-05-02T16:59:01.429Z,3.70
2018-05-02T17:01:32.988Z,4.30
2018-05-02T17:04:05.050Z,5.00
2018-05-02T17:06:36.909Z,4.90
2018-05-02T17:09:08.469Z,4.90
2018-05-02T17:11:41.723Z,4.62
2018-05-02T17:14:15.028Z,4.45
2018-05-02T17:16:47.621Z,4.87
2018-05-02T17:19:21.570Z,4.10
2018-05-02T17:21:54.764Z,5.07
2018-05-02T17:24:28.570Z,4.80
2018-05-02T17:27:01.402Z,4.17
2018-05-02T17:29:34.538Z,3.97
2018-05-02T17:32:07.258Z,4.40
2018-05-02T17:34:40.247Z,4.47
2018-05-02T17:37:12.957Z,5.10
2018-05-02T17:39:46.235Z,5.30
2018-05-02T17:42:19.411Z,4.93
2018-05-02T17:44:52.467Z,4.12
2018-05-02T17:47:25.413Z,4.13
2018-05-02T17:49:58.645Z,4.63
2018-05-02T17:52:31.098Z,4.90
2018-05-02T17:55:04.264Z,5.97
2018-05-02T17:57:36.742Z,4.53
2018-05-02T18:00:10.420Z,6.00
2018-05-02T18:02:43.416Z,4.73
2018-05-02T18:05:16.330Z,4.00
2018-05-02T18:07:48.419Z,3.70
2018-05-02T18:10:21.729Z,3.78
2018-05-02T18:12:54.538Z,3.92
2018-05-02T18:15:28.544Z,5.03
2018-05-02T18:18:01.895Z,4.47
2018-05-02T18:20:34.890Z,4.03
2018-05-02T18:23:07.980Z,4.20
2018-05-02T18:25:41.111Z,4.30
2018-05-02T18:28:14.458Z,4.10
2018-05-02T18:30:47.432Z,3.83
2018-05-02T18:33:20.482Z,4.40
2018-05-02T18:35:53.441Z,3.73
2018-05-02T18:38:26.482Z,4.20
2018-05-02T18:40:59.332Z,3.50
2018-05-02T18:43:32.690Z,3.78
2018-05-02T18:46:05.440Z,3.43
2018-05-02T18:48:38.595Z,3.60
2018-05-02T18:51:11.439Z,3.85
2018-05-02T18:53:45.444Z,3.72
2018-05-02T18:56:18.556Z,3.27
2018-05-02T18:58:52.336Z,3.90
2018-05-02T19:01:24.429Z,4.40
2018-05-02T19:03:57.630Z,4.80
2018-05-02T19:06:30.911Z,4.25
2018-05-02T19:11:34.962Z,4.00
2018-05-02T19:14:08.491Z,4.32
2018-05-02T19:19:19.264Z,4.10
2018-05-02T19:21:51.561Z,3.95
2018-05-02T19:24:25.349Z,4.10
2018-05-02T19:26:58.879Z,4.53
2018-05-02T19:29:32.520Z,4.37
2018-05-02T19:32:10.242Z,4.10
2018-05-02T19:34:42.569Z,4.30
2018-05-02T19:37:15.768Z,3.90
2018-05-02T19:39:53.079Z,4.13
2018-05-02T19:42:30.788Z,4.70
2018-05-02T19:45:04.493Z,4.28
2018-05-02T19:47:37.591Z,4.00
2018-05-02T19:50:10.943Z,4.10
2018-05-02T19:52:48.479Z,4.80
2018-05-02T19:55:21.047Z,4.47
2018-05-02T19:57:53.957Z,4.00
2018-05-02T20:00:31.965Z,4.32
2018-05-02T20:03:04.953Z,4.20
2018-05-02T20:05:37.991Z,4.10
2018-05-02T20:10:06.348Z,3.80
2018-05-02T20:12:43.254Z,4.07
2018-05-02T20:15:16.454Z,3.80
2018-05-02T20:17:50.087Z,4.00
2018-05-02T20:20:23.139Z,4.30
2018-05-02T20:22:56.413Z,3.87
2018-05-02T20:25:30.689Z,3.60
2018-05-02T20:28:03.673Z,3.53
2018-05-02T20:30:37.515Z,3.40
2018-05-02T20:33:11.434Z,3.70
2018-05-02T20:35:43.992Z,3.70
2018-05-02T20:38:17.525Z,3.90
2018-05-02T20:40:50.471Z,3.70
2018-05-02T20:43:24.260Z,4.10
2018-05-02T20:45:57.864Z,3.62
2018-05-02T20:48:31.518Z,3.93
2018-05-02T20:51:04.827Z,4.00
2018-05-02T20:53:37.357Z,4.20
2018-05-02T20:56:10.265Z,3.90
2018-05-02T20:58:42.568Z,4.00
2018-05-02T21:01:15.560Z,3.70
2018-05-02T21:03:48.777Z,4.28
2018-05-02T21:06:21.583Z,3.53
2018-05-02T21:08:55.919Z,3.87
2018-05-02T21:11:28.275Z,3.50
2018-05-02T21:14:01.363Z,4.00
2018-05-02T21:16:34.674Z,4.40
2018-05-02T21:19:08.522Z,4.30
2018-05-02T21:21:41.738Z,3.83
2018-05-02T21:24:15.000Z,4.32
2018-05-02T21:26:48.447Z,4.20
2018-05-02T21:29:22.131Z,3.70
2018-05-02T21:31:55.734Z,4.00
2018-05-02T21:34:28.460Z,3.75
2018-05-02T21:37:01.153Z,4.30
2018-05-02T21:39:34.551Z,4.60
2018-05-02T21:42:07.974Z,4.30
2018-05-02T21:44:40.465Z,4.25
2018-05-02T21:47:13.477Z,4.17
2018-05-02T21:49:46.643Z,4.03
2018-05-02T21:52:19.646Z,4.13
2018-05-02T21:54:53.103Z,4.00
2018-05-02T21:57:26.482Z,3.90
2018-05-02T21:59:59.620Z,4.30
2018-05-02T22:02:32.744Z,4.62
2018-05-02T22:05:05.774Z,4.82
2018-05-02T22:07:40.288Z,4.60
2018-05-02T22:10:14.490Z,4.60
2018-05-02T22:12:47.492Z,4.80
2018-05-02T22:15:20.665Z,4.40
2018-05-02T22:17:53.444Z,4.07
2018-05-02T22:20:26.091Z,3.80
2018-05-02T22:22:58.942Z,4.85
2018-05-02T22:25:32.090Z,5.40
2018-05-02T22:28:05.290Z,4.40
2018-05-02T22:30:38.174Z,5.00
2018-05-02T22:35:44.405Z,5.03
2018-05-02T22:38:18.270Z,4.70
2018-05-02T22:40:51.556Z,4.30
2018-05-02T22:43:25.548Z,5.00
2018-05-02T22:45:58.926Z,5.12
2018-05-02T22:48:31.226Z,5.00
2018-05-02T22:51:04.688Z,4.70
2018-05-02T22:53:38.136Z,5.37
2018-05-02T22:56:10.968Z,5.13
2018-05-02T22:58:44.451Z,4.85
2018-05-02T23:01:17.661Z,4.30
2018-05-02T23:03:50.720Z,4.70
2018-05-02T23:06:23.943Z,4.80
2018-05-02T23:08:56.951Z,4.80
2018-05-02T23:14:02.467Z,4.85
2018-05-02T23:16:35.799Z,5.40
2018-05-02T23:19:09.620Z,4.80
2018-05-02T23:21:42.271Z,4.30
2018-05-02T23:24:15.245Z,4.50
2018-05-02T23:26:47.977Z,4.30
2018-05-02T23:29:20.448Z,4.47
2018-05-02T23:31:53.421Z,5.10
2018-05-02T23:34:26.509Z,4.60
2018-05-02T23:37:00.233Z,5.10
2018-05-02T23:39:33.049Z,5.10
2018-05-02T23:42:05.690Z,4.77
2018-05-02T23:45:02.457Z,4.60
2018-05-02T23:47:34.973Z,4.80
2018-05-02T23:50:08.204Z,4.80
2018-05-02T23:52:40.888Z,5.00
2018-05-02T23:55:13.260Z,4.90
2018-05-02T23:57:46.085Z,5.13
